Time;durP1;ratioP1;P1;durP2;ratioP2;P2;SDS_P1;SDS_P2;PMS_P1;PMS_P2;Temp;Humidity;BMP_temperature;BMP_pressure;BME280_temperature;BME280_humidity;BME280_pressure;Samples;Min_cycle;Max_cycle;Signal;HPM_P1;HPM_P2
2023/06/27 00:01:22;;;;;;;5.13;2.33;;;;;;;21.10;49.45;99899.06;4905359;29;21009;-83
2023/06/27 00:03:51;;;;;;;3.83;1.83;;;;;;;21.08;49.73;99895.72;4909198;29;20219;-79
2023/06/27 00:06:19;;;;;;;7.67;2.33;;;;;;;21.07;49.42;99893.22;4911384;29;20230;-82
2023/06/27 00:08:46;;;;;;;3.60;2.17;;;;;;;21.08;49.87;99894.88;4911815;29;20544;-80
2023/06/27 00:11:12;;;;;;;3.90;2.20;;;;;;;21.06;49.78;99889.69;4892006;29;20637;-81
2023/06/27 00:13:40;;;;;;;4.03;1.97;;;;;;;21.06;49.90;99892.34;4892152;29;20481;-80
2023/06/27 00:16:09;;;;;;;2.33;1.83;;;;;;;21.09;49.84;99894.75;4911434;29;20219;-79
2023/06/27 00:18:34;;;;;;;2.60;1.53;;;;;;;21.13;49.69;99897.91;4910446;29;20558;-84
2023/06/27 00:21:00;;;;;;;2.27;1.57;;;;;;;21.17;49.69;99891.25;4907381;29;20567;-83
2023/06/27 00:23:33;;;;;;;2.90;1.83;;;;;;;21.22;49.33;99891.59;4909194;29;20236;-81
2023/06/27 00:26:02;;;;;;;2.80;2.07;;;;;;;21.23;49.49;99887.13;4906533;29;20344;-80
2023/06/27 00:28:28;;;;;;;2.37;1.73;;;;;;;21.25;49.73;99898.47;4911478;29;20457;-83
2023/06/27 00:30:55;;;;;;;3.20;1.50;;;;;;;21.14;49.85;99894.25;4895482;29;20566;-80
2023/06/27 00:33:21;;;;;;;2.77;1.70;;;;;;;21.05;50.27;99895.19;4889023;29;20653;-81
2023/06/27 00:35:46;;;;;;;3.45;1.98;;;;;;;20.99;51.01;99899.34;4895463;29;20469;-79
2023/06/27 00:38:12;;;;;;;4.37;2.03;;;;;;;20.94;51.27;99889.13;4891522;29;20764;-81
2023/06/27 00:40:38;;;;;;;2.77;1.90;;;;;;;20.90;51.21;99898.47;4890137;29;20467;-79
2023/06/27 00:43:03;;;;;;;4.53;2.50;;;;;;;20.86;51.40;99899.75;4891343;29;20221;-80
2023/06/27 00:45:29;;;;;;;2.30;1.60;;;;;;;20.82;51.50;99906.41;4892590;29;20298;-82
2023/06/27 00:47:56;;;;;;;2.97;2.67;;;;;;;20.76;51.67;99907.03;4910678;29;20214;-84
2023/06/27 00:50:26;;;;;;;2.63;2.37;;;;;;;20.74;51.86;99909.88;4891685;29;20373;-81
2023/06/27 00:52:51;;;;;;;4.00;3.60;;;;;;;20.69;52.11;99911.31;4906593;29;21015;-80
2023/06/27 00:55:18;;;;;;;2.37;2.17;;;;;;;20.57;52.53;99915.22;4914415;29;20452;-81
2023/06/27 00:57:46;;;;;;;1.97;1.70;;;;;;;20.40;53.04;99915.06;4910212;29;20225;-79
2023/06/27 01:00:13;;;;;;;2.30;1.73;;;;;;;20.31;53.14;99910.66;4911065;29;20473;-83
2023/06/27 01:02:39;;;;;;;2.93;2.13;;;;;;;20.30;53.12;99916.97;4908197;29;21025;-80
2023/06/27 01:05:07;;;;;;;5.57;2.10;;;;;;;20.29;53.32;99915.28;4891355;29;20464;-81
2023/06/27 01:07:39;;;;;;;5.93;2.50;;;;;;;20.28;53.55;99908.25;4907361;29;20282;-83
2023/06/27 01:10:11;;;;;;;4.83;1.90;;;;;;;20.31;53.22;99918.66;4913855;29;20484;-80
2023/06/27 01:12:43;;;;;;;4.40;2.53;;;;;;;20.29;53.34;99913.47;4907105;29;20538;-80
2023/06/27 01:15:10;;;;;;;2.80;2.03;;;;;;;20.28;53.19;99910.94;4912039;29;21296;-79
2023/06/27 01:17:38;;;;;;;3.23;2.03;;;;;;;20.27;53.33;99917.25;4899308;29;20470;-81
2023/06/27 01:20:07;;;;;;;1.90;1.70;;;;;;;20.26;53.51;99921.75;4891237;29;20465;-79
2023/06/27 01:22:36;;;;;;;5.23;2.17;;;;;;;20.17;53.81;99924.50;4910529;29;20910;-80
2023/06/27 01:25:03;;;;;;;2.67;1.83;;;;;;;20.02;54.31;99916.19;4894506;29;20469;-80
2023/06/27 01:27:29;;;;;;;4.50;2.13;;;;;;;19.90;54.69;99926.22;4909724;29;20500;-79
2023/06/27 01:29:55;;;;;;;3.77;3.37;;;;;;;19.78;55.26;99919.44;4894268;29;20477;-79
2023/06/27 01:32:32;;;;;;;3.10;1.90;;;;;;;19.66;55.65;99921.47;4907992;29;20471;-80
2023/06/27 01:35:12;;;;;;;3.17;2.10;;;;;;;19.56;55.93;99924.13;4906260;29;20688;-82
2023/06/27 01:37:49;;;;;;;4.77;2.10;;;;;;;19.47;56.38;99922.38;4896204;29;20488;-80
2023/06/27 01:40:19;;;;;;;3.93;2.27;;;;;;;19.43;56.27;99921.81;4911806;29;21154;-79
2023/06/27 01:42:49;;;;;;;5.80;2.50;;;;;;;19.44;56.17;99919.97;4907724;29;21006;-79
2023/06/27 01:45:17;;;;;;;3.40;1.93;;;;;;;19.42;56.61;99916.66;4894286;29;20515;-82
2023/06/27 01:47:43;;;;;;;4.03;2.27;;;;;;;19.40;56.43;99916.78;4905664;29;20488;-80
2023/06/27 01:50:10;;;;;;;1.77;1.67;;;;;;;19.38;56.60;99912.56;4891189;29;21009;-78
2023/06/27 01:52:38;;;;;;;6.20;2.47;;;;;;;19.39;56.54;99907.13;4913006;29;20883;-79
2023/06/27 01:55:04;;;;;;;2.97;2.33;;;;;;;19.35;56.76;99905.72;4912551;29;21053;-81
2023/06/27 01:57:32;;;;;;;3.33;2.27;;;;;;;19.31;56.91;99908.81;4910067;29;20707;-83
2023/06/27 01:59:58;;;;;;;4.90;2.20;;;;;;;19.32;56.66;99906.00;4893755;29;20476;-81
2023/06/27 02:02:23;;;;;;;2.93;2.60;;;;;;;19.32;56.95;99894.53;4913390;29;20293;-81
2023/06/27 02:04:49;;;;;;;4.00;2.63;;;;;;;19.36;56.52;99890.56;4892954;29;20288;-80
2023/06/27 02:07:15;;;;;;;1.80;1.60;;;;;;;19.43;56.54;99891.66;4912600;29;20376;-80
2023/06/27 02:09:40;;;;;;;3.33;2.23;;;;;;;19.42;56.40;99892.66;4912136;29;20480;-80
2023/06/27 02:12:09;;;;;;;4.33;1.70;;;;;;;19.40;56.52;99886.63;4913927;29;20883;-80
2023/06/27 02:14:34;;;;;;;4.20;2.10;;;;;;;19.41;56.86;99894.47;4894196;29;20722;-83
2023/06/27 02:17:00;;;;;;;3.03;2.03;;;;;;;19.37;56.97;99892.28;4894201;29;20486;-83
2023/06/27 02:19:25;;;;;;;3.97;1.90;;;;;;;19.32;57.02;99898.03;4895854;29;20230;-80
2023/06/27 02:21:52;;;;;;;2.60;1.80;;;;;;;19.26;57.40;99892.47;4911754;29;20568;-79
2023/06/27 02:24:17;;;;;;;4.27;2.70;;;;;;;19.23;57.66;99888.25;4899581;29;20468;-79
2023/06/27 02:26:43;;;;;;;3.40;2.33;;;;;;;19.21;57.33;99892.88;4910342;29;20229;-82
2023/06/27 02:29:09;;;;;;;3.03;2.20;;;;;;;19.19;57.63;99892.19;4893010;29;20497;-79
2023/06/27 02:31:36;;;;;;;4.63;2.53;;;;;;;19.16;58.02;99895.16;4910269;29;20240;-80
2023/06/27 02:34:01;;;;;;;4.23;2.43;;;;;;;19.09;57.92;99889.56;4912813;29;20487;-82
2023/06/27 02:36:27;;;;;;;3.23;2.50;;;;;;;19.06;58.51;99892.50;4913447;29;20514;-83
2023/06/27 02:38:55;;;;;;;2.50;2.20;;;;;;;19.02;58.70;99893.78;4892468;29;20232;-82
2023/06/27 02:41:22;;;;;;;4.03;2.70;;;;;;;19.02;58.58;99894.63;4913116;29;20486;-80
2023/06/27 02:43:47;;;;;;;2.97;2.30;;;;;;;19.04;58.18;99897.16;4913825;29;20215;-80
2023/06/27 02:46:13;;;;;;;4.23;2.37;;;;;;;19.05;58.36;99898.81;4912369;29;21001;-81
2023/06/27 02:48:38;;;;;;;3.83;2.10;;;;;;;19.05;58.31;99898.81;4910413;29;20604;-81
2023/06/27 02:51:03;;;;;;;2.50;1.90;;;;;;;19.01;58.38;99894.78;4911979;29;20250;-80
2023/06/27 02:53:29;;;;;;;2.93;2.07;;;;;;;18.96;58.89;99899.72;4894793;29;20304;-82
2023/06/27 02:55:57;;;;;;;2.60;2.00;;;;;;;18.91;58.93;99904.63;4914195;29;20266;-82
2023/06/27 02:58:23;;;;;;;3.13;2.17;;;;;;;18.85;59.08;99908.69;4891586;29;20538;-80
2023/06/27 03:00:49;;;;;;;3.50;2.07;;;;;;;18.81;59.08;99907.28;4911593;29;20894;-79
2023/06/27 03:03:14;;;;;;;3.30;2.20;;;;;;;18.77;59.31;99904.09;4890926;29;20453;-84
2023/06/27 03:05:40;;;;;;;3.40;2.20;;;;;;;18.74;59.56;99911.47;4900390;29;20452;-81
2023/06/27 03:08:06;;;;;;;3.63;2.70;;;;;;;18.69;59.65;99913.75;4891369;29;20480;-80
2023/06/27 03:10:31;;;;;;;2.33;2.03;;;;;;;18.67;59.74;99905.06;4906119;29;20657;-80
2023/06/27 03:12:57;;;;;;;2.07;1.87;;;;;;;18.68;59.61;99907.56;4890910;29;20218;-81
2023/06/27 03:15:22;;;;;;;3.23;2.03;;;;;;;18.73;59.17;99913.28;4899963;29;20221;-82
2023/06/27 03:17:47;;;;;;;5.30;1.90;;;;;;;18.83;59.03;99909.81;4893145;29;20219;-83
2023/06/27 03:20:13;;;;;;;4.20;1.97;;;;;;;18.94;58.52;99905.16;4916302;29;20224;-80
2023/06/27 03:22:38;;;;;;;3.23;2.80;;;;;;;19.04;58.44;99902.47;4895993;29;20689;-80
2023/06/27 03:25:09;;;;;;;5.90;2.67;;;;;;;19.09;58.42;99902.03;4892820;29;20230;-81
2023/06/27 03:27:35;;;;;;;2.63;2.27;;;;;;;19.11;58.10;99902.72;4895779;29;21179;-81
2023/06/27 03:30:01;;;;;;;2.60;2.20;;;;;;;19.15;58.12;99909.47;4895684;29;20465;-81
2023/06/27 03:32:27;;;;;;;3.60;2.40;;;;;;;19.19;58.33;99911.66;4888198;29;20834;-82
2023/06/27 03:34:52;;;;;;;2.93;2.73;;;;;;;19.20;58.35;99907.19;4913287;29;21080;-81
2023/06/27 03:37:19;;;;;;;4.90;2.33;;;;;;;19.16;58.47;99898.63;4894900;29;20549;-81
2023/06/27 03:39:45;;;;;;;4.50;2.33;;;;;;;19.13;58.96;99900.78;4888462;29;20205;-81
2023/06/27 03:42:11;;;;;;;4.10;2.30;;;;;;;19.10;59.01;99901.91;4890521;29;20480;-81
2023/06/27 03:44:36;;;;;;;2.27;2.10;;;;;;;19.12;58.83;99904.41;4905685;29;20484;-78
2023/06/27 03:47:02;;;;;;;4.30;1.80;;;;;;;19.18;58.63;99895.84;4888754;29;20456;-81
2023/06/27 03:49:28;;;;;;;3.30;1.93;;;;;;;19.23;58.30;99899.75;4893860;29;20715;-79
2023/06/27 03:51:53;;;;;;;4.90;2.20;;;;;;;19.28;58.29;99904.66;4890951;29;20483;-82
2023/06/27 03:54:19;;;;;;;6.97;2.70;;;;;;;19.33;58.44;99893.53;4913510;29;20211;-81
2023/06/27 03:56:46;;;;;;;3.90;2.00;;;;;;;19.38;58.29;99893.94;4897283;29;20437;-81
2023/06/27 03:59:11;;;;;;;4.70;2.47;;;;;;;19.42;58.13;99904.16;4891542;29;20471;-80
2023/06/27 04:01:39;;;;;;;2.40;2.20;;;;;;;19.44;58.21;99894.19;4908951;29;20555;-80
2023/06/27 04:04:04;;;;;;;4.90;2.50;;;;;;;19.41;58.40;99894.47;4892260;29;20221;-80
2023/06/27 04:06:30;;;;;;;3.37;2.60;;;;;;;19.34;58.49;99904.06;4899932;29;20463;-80
2023/06/27 04:08:57;;;;;;;4.40;2.30;;;;;;;19.29;58.71;99906.31;4893040;29;20464;-80
2023/06/27 04:11:22;;;;;;;2.77;2.30;;;;;;;19.26;59.00;99908.44;4912213;29;20214;-82
2023/06/27 04:13:48;;;;;;;3.70;2.30;;;;;;;19.19;59.32;99911.66;4911220;29;20537;-82
2023/06/27 04:16:14;;;;;;;3.67;1.87;;;;;;;19.13;59.50;99911.41;4899174;29;20584;-80
2023/06/27 04:18:40;;;;;;;3.13;2.13;;;;;;;19.07;59.43;99909.34;4895699;29;20463;-80
2023/06/27 04:21:07;;;;;;;3.93;2.30;;;;;;;19.03;59.47;99911.44;4895618;29;20464;-80
2023/06/27 04:23:33;;;;;;;2.90;2.53;;;;;;;19.02;59.80;99918.59;4894200;29;20308;-81
2023/06/27 04:26:05;;;;;;;2.70;2.50;;;;;;;18.99;59.80;99915.38;4892183;29;21146;-80
2023/06/27 04:28:34;;;;;;;9.33;2.40;;;;;;;18.94;59.84;99912.31;4895373;29;20840;-80
2023/06/27 04:31:01;;;;;;;2.53;2.00;;;;;;;18.91;60.10;99915.28;4911955;29;20496;-80
2023/06/27 04:33:30;;;;;;;4.20;2.57;;;;;;;18.90;60.01;99924.22;4909330;29;20478;-80
2023/06/27 04:36:00;;;;;;;7.77;2.43;;;;;;;18.90;60.34;99922.41;4909661;29;20514;-81
2023/06/27 04:38:27;;;;;;;4.13;2.80;;;;;;;18.88;60.29;99924.38;4913751;29;20479;-80
2023/06/27 04:40:52;;;;;;;2.00;1.70;;;;;;;18.87;60.42;99927.16;4908607;29;20474;-80
2023/06/27 04:43:18;;;;;;;3.00;2.20;;;;;;;18.85;60.42;99916.69;4898066;29;20462;-79
2023/06/27 04:45:43;;;;;;;3.67;2.10;;;;;;;18.85;60.32;99914.03;4909042;29;20310;-79
2023/06/27 04:48:09;;;;;;;5.17;2.37;;;;;;;18.88;60.25;99916.41;4907388;29;20231;-79
2023/06/27 04:50:35;;;;;;;5.10;1.90;;;;;;;18.92;59.79;99907.13;4910056;29;20218;-81
2023/06/27 04:53:02;;;;;;;2.80;1.83;;;;;;;18.99;59.88;99913.56;4910371;29;20218;-81
2023/06/27 04:55:28;;;;;;;4.70;2.30;;;;;;;19.07;59.54;99906.69;4912443;29;20999;-79
2023/06/27 04:57:54;;;;;;;4.00;2.10;;;;;;;19.13;59.33;99909.59;4909925;29;20468;-79
2023/06/27 05:00:19;;;;;;;3.57;2.23;;;;;;;19.19;59.12;99917.00;4910291;29;20207;-78
2023/06/27 05:02:45;;;;;;;4.03;2.37;;;;;;;19.22;59.39;99908.69;4909098;29;20219;-81
2023/06/27 05:05:10;;;;;;;3.70;2.63;;;;;;;19.24;59.63;99912.06;4910469;29;20227;-78
2023/06/27 05:07:36;;;;;;;4.20;2.53;;;;;;;19.24;59.75;99904.06;4912859;29;20287;-79
2023/06/27 05:10:01;;;;;;;3.60;2.53;;;;;;;19.26;59.50;99909.28;4912865;29;20223;-79
2023/06/27 05:12:26;;;;;;;3.60;2.50;;;;;;;19.28;59.42;99915.31;4913754;29;20522;-83
2023/06/27 05:14:52;;;;;;;5.83;3.03;;;;;;;19.26;59.57;99917.25;4912318;29;20701;-85
2023/06/27 05:17:17;;;;;;;3.83;3.10;;;;;;;19.26;59.65;99924.41;4908022;29;20411;-82
2023/06/27 05:19:43;;;;;;;6.13;3.13;;;;;;;19.26;59.80;99924.41;4913357;29;20286;-78
2023/06/27 05:22:08;;;;;;;3.60;2.60;;;;;;;19.28;59.53;99922.44;4913616;29;20224;-79
2023/06/27 05:24:33;;;;;;;4.30;3.10;;;;;;;19.31;59.45;99915.00;4911859;29;20292;-80
2023/06/27 05:26:59;;;;;;;7.30;3.03;;;;;;;19.37;59.33;99918.91;4911457;29;20214;-79
2023/06/27 05:29:24;;;;;;;5.13;2.60;;;;;;;19.41;59.17;99914.94;4913312;29;20238;-79
2023/06/27 05:31:50;;;;;;;4.77;3.30;;;;;;;19.44;59.33;99919.97;4913495;29;20280;-79
2023/06/27 05:34:15;;;;;;;4.57;2.40;;;;;;;19.50;59.05;99911.41;4912947;29;20276;-79
2023/06/27 05:36:40;;;;;;;3.83;2.90;;;;;;;19.60;59.00;99920.19;4910575;29;20455;-79
2023/06/27 05:39:06;;;;;;;4.23;2.53;;;;;;;19.66;59.17;99916.97;4911018;29;20706;-83
2023/06/27 05:41:32;;;;;;;3.77;2.43;;;;;;;19.75;58.75;99920.56;4910455;29;20215;-83
2023/06/27 05:43:57;;;;;;;3.30;2.80;;;;;;;19.81;59.00;99917.28;4912866;29;20939;-81
2023/06/27 05:46:22;;;;;;;3.87;3.07;;;;;;;19.86;58.92;99914.19;4910371;29;20471;-80
2023/06/27 05:48:48;;;;;;;6.80;2.57;;;;;;;19.89;58.84;99916.56;4907472;29;20230;-81
2023/06/27 05:51:13;;;;;;;7.37;3.80;;;;;;;19.96;58.49;99911.47;4910197;29;20250;-79
2023/06/27 05:53:41;;;;;;;8.07;3.10;;;;;;;20.03;58.17;99901.84;4911122;29;20272;-79
2023/06/27 05:56:07;;;;;;;3.70;2.33;;;;;;;20.13;57.97;99905.31;4908365;29;20218;-79
2023/06/27 05:58:36;;;;;;;5.63;2.33;;;;;;;20.20;57.64;99909.03;4909946;29;20895;-81
2023/06/27 06:01:02;;;;;;;4.17;3.20;;;;;;;20.29;57.30;99901.94;4911827;29;20262;-79
2023/06/27 06:03:27;;;;;;;3.73;2.63;;;;;;;20.40;57.00;99906.22;4911755;29;20629;-80
2023/06/27 06:05:52;;;;;;;4.07;3.07;;;;;;;20.49;56.87;99911.44;4909980;29;20213;-78
2023/06/27 06:08:18;;;;;;;3.73;2.50;;;;;;;20.58;56.98;99911.53;4910567;29;20226;-82
2023/06/27 06:10:45;;;;;;;3.53;2.57;;;;;;;20.66;56.87;99907.13;4910198;29;20593;-80
2023/06/27 06:13:10;;;;;;;3.67;2.67;;;;;;;20.78;57.02;99913.06;4912227;29;20479;-79
2023/06/27 06:15:36;;;;;;;5.17;2.50;;;;;;;20.94;56.94;99910.50;4912872;29;20447;-79
2023/06/27 06:18:01;;;;;;;4.10;3.47;;;;;;;21.17;56.89;99924.16;4914360;29;20487;-83
2023/06/27 06:20:29;;;;;;;5.83;2.73;;;;;;;21.49;56.00;99920.00;4910342;29;20224;-84
2023/06/27 06:22:54;;;;;;;4.80;3.27;;;;;;;21.91;54.90;99921.81;4915249;29;20904;-78
2023/06/27 06:25:20;;;;;;;9.70;3.70;;;;;;;22.23;53.55;99913.06;4912181;29;21034;-79
2023/06/27 06:27:45;;;;;;;4.03;2.57;;;;;;;22.57;52.20;99913.91;4895196;29;20727;-79
2023/06/27 06:30:11;;;;;;;4.70;2.70;;;;;;;22.99;51.12;99908.38;4912155;29;20235;-79
2023/06/27 06:32:37;;;;;;;4.40;2.40;;;;;;;23.42;50.02;99903.56;4910482;29;20290;-79
2023/06/27 06:35:03;;;;;;;7.50;3.73;;;;;;;23.77;48.96;99904.09;4906827;29;20263;-81
2023/06/27 06:37:29;;;;;;;4.13;3.03;;;;;;;24.01;48.33;99911.19;4912190;29;20446;-79
2023/06/27 06:39:54;;;;;;;4.13;2.97;;;;;;;24.12;47.60;99896.53;4914175;29;20457;-83
2023/06/27 06:42:20;;;;;;;6.00;2.87;;;;;;;24.26;46.94;99885.84;4915862;29;20287;-83
2023/06/27 06:44:47;;;;;;;3.20;2.80;;;;;;;24.35;46.62;99889.28;4914071;29;20733;-79
2023/06/27 06:47:13;;;;;;;7.80;4.17;;;;;;;24.39;45.99;99889.78;4914573;29;20268;-79
2023/06/27 06:49:38;;;;;;;10.73;2.47;;;;;;;24.50;45.40;99892.06;4912622;29;21071;-80
2023/06/27 06:52:04;;;;;;;3.17;1.90;;;;;;;24.49;44.71;99890.38;4909734;29;20681;-81
2023/06/27 06:57:11;;;;;;;4.63;2.60;;;;;;;24.43;44.03;99893.75;5342177;23;20250;-81
2023/06/27 06:59:37;;;;;;;3.63;2.10;;;;;;;24.48;43.17;99896.78;4966251;28;20468;-77
2023/06/27 07:02:02;;;;;;;3.97;3.07;;;;;;;24.57;42.59;99898.34;4971627;28;20222;-81
2023/06/27 07:04:28;;;;;;;4.00;2.70;;;;;;;24.63;41.67;99891.44;4969949;28;20236;-80
2023/06/27 07:06:54;;;;;;;4.17;2.20;;;;;;;24.64;41.46;99893.09;4969703;28;20487;-80
2023/06/27 07:09:20;;;;;;;7.67;2.60;;;;;;;24.63;41.35;99889.59;4971119;28;20821;-80
2023/06/27 07:11:45;;;;;;;3.93;1.97;;;;;;;24.61;41.06;99888.94;4969097;28;20559;-79
2023/06/27 07:14:12;;;;;;;3.93;2.47;;;;;;;24.66;41.08;99880.34;4970222;28;20244;-79
2023/06/27 07:16:37;;;;;;;2.23;1.87;;;;;;;24.77;40.57;99884.44;4969712;28;20216;-79
2023/06/27 07:19:03;;;;;;;8.03;2.13;;;;;;;24.91;40.33;99881.75;4968193;28;20453;-80
2023/06/27 07:21:28;;;;;;;3.77;2.10;;;;;;;25.12;39.78;99878.34;4971586;28;20209;-79
2023/06/27 07:23:53;;;;;;;3.10;2.17;;;;;;;25.36;39.35;99868.34;4971172;28;20242;-81
2023/06/27 07:26:19;;;;;;;5.00;2.23;;;;;;;25.61;38.68;99875.06;4966812;28;20696;-82
2023/06/27 07:28:44;;;;;;;4.77;1.83;;;;;;;25.79;37.46;99877.34;4969234;28;20223;-81
2023/06/27 07:31:10;;;;;;;4.07;2.40;;;;;;;25.96;36.81;99871.78;4965900;28;20680;-79
2023/06/27 07:33:35;;;;;;;2.60;1.90;;;;;;;26.23;36.13;99873.69;4971982;28;20244;-79
2023/06/27 07:36:00;;;;;;;3.47;3.00;;;;;;;26.55;35.89;99870.69;4971579;28;20704;-79
2023/06/27 07:38:26;;;;;;;3.77;2.17;;;;;;;26.79;35.31;99880.16;4970491;28;20219;-80
2023/06/27 07:40:51;;;;;;;2.53;2.00;;;;;;;26.88;35.13;99877.13;4964887;28;20206;-79
2023/06/27 07:43:17;;;;;;;2.70;2.00;;;;;;;26.97;35.04;99872.41;4969273;28;20215;-79
2023/06/27 07:45:42;;;;;;;3.80;1.53;;;;;;;27.05;34.79;99880.34;4973547;28;20418;-79
2023/06/27 07:48:08;;;;;;;3.50;2.13;;;;;;;27.08;34.48;99879.94;4968669;28;20216;-79
2023/06/27 07:50:33;;;;;;;4.90;2.27;;;;;;;26.99;34.28;99881.16;4969249;28;20248;-79
2023/06/27 07:52:58;;;;;;;2.00;1.80;;;;;;;26.89;34.26;99883.34;4966506;28;20297;-81
2023/06/27 07:55:24;;;;;;;3.10;2.20;;;;;;;26.81;34.30;99883.50;4968037;28;20220;-82
2023/06/27 07:57:49;;;;;;;4.47;1.50;;;;;;;26.78;34.60;99889.28;4934228;28;20403;-78
2023/06/27 08:00:15;;;;;;;3.23;1.90;;;;;;;26.86;34.71;99881.88;4926618;29;20469;-79
2023/06/27 08:02:41;;;;;;;5.33;1.60;;;;;;;27.01;34.19;99886.34;4933760;29;20565;-79
2023/06/27 08:05:07;;;;;;;2.57;1.50;;;;;;;27.13;33.48;99882.06;4928621;29;20444;-78
2023/06/27 08:07:32;;;;;;;4.23;2.40;;;;;;;27.32;33.09;99885.94;4928933;29;20254;-78
2023/06/27 08:09:58;;;;;;;4.60;1.57;;;;;;;27.47;32.69;99881.25;4927338;29;20849;-82
2023/06/27 08:12:23;;;;;;;3.00;1.70;;;;;;;27.61;31.72;99876.72;4927384;29;20206;-80
2023/06/27 08:14:49;;;;;;;3.43;1.80;;;;;;;27.54;31.67;99875.84;4931110;29;20214;-79
2023/06/27 08:17:15;;;;;;;2.80;1.70;;;;;;;27.44;31.88;99876.25;4930017;29;20206;-81
2023/06/27 08:19:40;;;;;;;2.67;1.57;;;;;;;27.43;31.89;99863.78;4929846;29;20451;-81
2023/06/27 08:22:05;;;;;;;1.83;1.70;;;;;;;27.55;31.70;99872.97;4929827;29;20225;-79
2023/06/27 08:24:31;;;;;;;7.70;1.60;;;;;;;27.63;31.46;99865.75;4924537;29;20765;-78
2023/06/27 08:26:56;;;;;;;1.93;1.50;;;;;;;27.63;31.06;99863.03;4927192;29;20238;-79
2023/06/27 08:29:23;;;;;;;3.37;1.70;;;;;;;27.57;31.08;99862.81;4924603;29;20209;-79
2023/06/27 08:31:51;;;;;;;5.03;1.77;;;;;;;27.29;30.89;99862.06;4931991;29;20740;-79
2023/06/27 08:34:17;;;;;;;3.87;2.03;;;;;;;26.88;31.20;99862.84;4928989;29;20454;-79
2023/06/27 08:36:43;;;;;;;4.43;2.17;;;;;;;26.50;31.82;99863.16;4925820;29;20577;-81
2023/06/27 08:39:09;;;;;;;3.13;1.70;;;;;;;26.15;32.24;99865.75;4930632;29;20552;-78
2023/06/27 08:41:34;;;;;;;2.20;1.83;;;;;;;26.12;32.82;99871.53;4930733;29;20554;-80
2023/06/27 08:43:59;;;;;;;3.37;1.70;;;;;;;26.29;32.44;99871.25;4930585;29;20316;-79
2023/06/27 08:46:27;;;;;;;2.30;1.80;;;;;;;26.54;32.61;99863.63;4931969;29;20213;-73
2023/06/27 08:48:53;;;;;;;1.77;1.67;;;;;;;26.61;32.38;99865.34;4925937;29;20659;-78
2023/06/27 08:51:21;;;;;;;2.63;1.60;;;;;;;26.74;32.18;99861.09;4924817;29;20476;-78
2023/06/27 08:53:48;;;;;;;3.30;1.77;;;;;;;26.89;32.01;99865.31;4929838;29;20470;-82
2023/06/27 08:56:17;;;;;;;6.63;1.83;;;;;;;26.98;31.96;99857.94;4929887;28;20629;-78
2023/06/27 08:58:49;;;;;;;2.20;1.87;;;;;;;27.04;31.74;99859.00;4946867;28;20576;-78
2023/06/27 09:01:15;;;;;;;2.17;1.60;;;;;;;26.98;32.04;99844.44;4948163;28;20454;-81
2023/06/27 09:03:41;;;;;;;3.20;1.93;;;;;;;27.00;32.20;99841.53;4946654;28;21156;-80
2023/06/27 09:06:07;;;;;;;4.37;2.07;;;;;;;26.97;31.96;99842.78;4948683;28;20646;-78
2023/06/27 09:08:33;;;;;;;2.97;2.23;;;;;;;27.09;31.91;99841.19;4944348;28;20291;-78
2023/06/27 09:11:00;;;;;;;3.43;1.87;;;;;;;27.31;31.49;99833.84;4944274;28;20526;-79
2023/06/27 09:13:25;;;;;;;3.03;1.93;;;;;;;27.50;31.90;99836.84;4942444;28;20465;-79
2023/06/27 09:15:51;;;;;;;3.50;2.07;;;;;;;27.59;31.79;99841.81;4943967;28;20461;-78
2023/06/27 09:18:16;;;;;;;4.70;1.57;;;;;;;27.56;31.71;99839.53;4949164;28;20215;-79
2023/06/27 09:20:42;;;;;;;3.67;1.90;;;;;;;27.60;31.33;99842.69;4944504;28;20208;-81
2023/06/27 09:23:08;;;;;;;2.37;1.70;;;;;;;27.58;31.47;99840.19;4949187;28;20697;-81
2023/06/27 09:25:33;;;;;;;3.20;1.83;;;;;;;27.63;30.98;99836.06;4947301;28;20450;-78
2023/06/27 09:28:12;;;;;;;2.57;1.80;;;;;;;27.62;30.90;99829.81;4947510;28;20786;-78
2023/06/27 09:30:38;;;;;;;1.90;1.60;;;;;;;27.72;30.48;99835.66;4945359;28;20350;-78
2023/06/27 09:33:04;;;;;;;2.93;1.60;;;;;;;27.81;30.43;99833.63;4947126;28;20468;-78
2023/06/27 09:35:31;;;;;;;4.60;2.20;;;;;;;27.78;30.75;99834.81;4945301;28;20228;-78
2023/06/27 09:38:08;;;;;;;5.93;2.50;;;;;;;27.71;30.90;99838.56;4951251;28;20465;-78
2023/06/27 09:40:35;;;;;;;4.10;2.07;;;;;;;27.64;31.04;99837.72;4948066;28;20551;-79
2023/06/27 09:43:00;;;;;;;2.50;2.30;;;;;;;27.66;31.21;99832.94;4949536;28;20529;-78
2023/06/27 09:45:30;;;;;;;2.87;1.77;;;;;;;27.75;31.12;99826.31;4948850;28;20475;-79
2023/06/27 09:47:55;;;;;;;3.60;2.10;;;;;;;27.85;30.19;99829.50;4947452;28;20289;-81
2023/06/27 09:53:03;;;;;;;4.23;1.60;;;;;;;27.85;30.79;99826.78;1232923;26;21981;-80
2023/06/27 09:55:28;;;;;;;2.90;1.90;;;;;;;27.95;30.58;99829.94;4972072;28;20510;-80
2023/06/27 09:57:55;;;;;;;3.37;2.13;;;;;;;28.15;30.15;99819.13;4969070;28;20208;-80
2023/06/27 10:00:22;;;;;;;3.97;2.27;;;;;;;28.31;29.83;99831.41;4978292;28;20206;-80
2023/06/27 10:02:48;;;;;;;4.47;2.23;;;;;;;28.29;29.61;99814.56;4978239;28;20874;-78
2023/06/27 10:05:17;;;;;;;5.13;1.92;;;;;;;27.95;29.57;99819.13;4976831;28;20829;-80
2023/06/27 10:07:44;;;;;;;3.23;2.00;;;;;;;27.75;29.82;99832.53;4976982;28;20239;-78
2023/06/27 10:10:11;;;;;;;3.90;2.33;;;;;;;27.80;30.43;99826.56;4979657;28;20924;-79
2023/06/27 10:12:37;;;;;;;2.90;2.07;;;;;;;27.96;30.34;99819.94;4984733;28;20469;-80
2023/06/27 10:15:04;;;;;;;2.60;1.97;;;;;;;28.17;30.13;99816.25;4986017;28;20457;-82
2023/06/27 10:17:30;;;;;;;3.53;1.60;;;;;;;28.32;29.82;99824.13;4981039;28;20562;-83
2023/06/27 10:19:57;;;;;;;3.73;2.10;;;;;;;28.28;29.00;99823.72;4981685;28;20549;-81
2023/06/27 10:22:29;;;;;;;3.93;2.03;;;;;;;28.09;29.61;99830.78;4985652;28;20686;-79
2023/06/27 10:24:57;;;;;;;2.57;2.37;;;;;;;28.09;29.63;99821.84;4982343;28;20494;-80
2023/06/27 10:27:25;;;;;;;2.20;2.00;;;;;;;28.09;29.46;99830.78;4986045;28;20520;-82
2023/06/27 10:29:50;;;;;;;2.33;1.80;;;;;;;28.20;28.72;99829.31;4984632;28;20577;-80
2023/06/27 10:32:18;;;;;;;2.60;1.90;;;;;;;28.25;28.15;99824.13;4986941;28;21406;-79
2023/06/27 10:34:45;;;;;;;3.20;2.10;;;;;;;28.30;27.99;99829.75;4983171;28;20237;-81
2023/06/27 10:37:24;;;;;;;2.43;1.67;;;;;;;28.41;28.19;99839.94;4985422;28;20441;-80
2023/06/27 10:40:09;;;;;;;5.77;1.77;;;;;;;28.56;28.51;99826.22;4985344;28;20451;-80
2023/06/27 10:42:35;;;;;;;3.03;2.13;;;;;;;28.58;28.26;99818.72;4983767;28;20475;-82
2023/06/27 10:45:10;;;;;;;7.70;2.40;;;;;;;28.27;28.55;99821.22;4985399;28;20449;-83
2023/06/27 10:47:42;;;;;;;4.33;1.83;;;;;;;27.91;29.41;99823.25;4987195;28;20456;-82
2023/06/27 10:50:10;;;;;;;7.77;2.13;;;;;;;27.74;29.73;99830.88;4986230;28;20948;-80
2023/06/27 10:52:37;;;;;;;6.70;1.90;;;;;;;27.75;29.82;99826.31;4985040;28;20472;-80
2023/06/27 10:55:29;;;;;;;1.90;1.40;;;;;;;27.90;29.77;99826.19;4983830;28;20495;-80
2023/06/27 10:58:10;;;;;;;3.30;2.20;;;;;;;28.00;29.40;99822.03;4981147;28;20477;-80
2023/06/27 11:00:40;;;;;;;5.23;2.07;;;;;;;27.83;29.03;99822.63;4986244;28;20556;-82
2023/06/27 11:03:06;;;;;;;6.10;2.33;;;;;;;27.67;29.20;99818.41;4985630;28;20449;-83
2023/06/27 11:05:41;;;;;;;2.57;1.80;;;;;;;27.64;29.83;99827.75;4983873;28;20492;-82
2023/06/27 11:08:15;;;;;;;3.80;1.87;;;;;;;27.84;29.26;99819.75;4982977;28;20241;-82
2023/06/27 11:10:51;;;;;;;2.00;1.77;;;;;;;28.08;29.18;99818.28;4984352;28;20516;-80
2023/06/27 11:13:21;;;;;;;4.63;2.63;;;;;;;28.21;28.62;99814.78;4983551;28;20531;-82
2023/06/27 11:15:47;;;;;;;4.93;1.83;;;;;;;28.18;28.88;99817.88;4987558;28;20505;-80
2023/06/27 11:18:15;;;;;;;1.97;1.70;;;;;;;28.24;28.86;99819.75;4985288;28;20537;-80
2023/06/27 11:20:44;;;;;;;4.77;2.30;;;;;;;28.29;28.49;99814.56;4983477;28;20460;-80
2023/06/27 11:23:12;;;;;;;5.53;2.50;;;;;;;28.23;28.48;99821.63;4983061;28;20703;-80
2023/06/27 11:25:42;;;;;;;3.10;1.87;;;;;;;28.08;28.97;99812.88;4981416;28;20466;-79
2023/06/27 11:28:12;;;;;;;1.90;1.80;;;;;;;27.65;28.78;99815.91;4982357;28;20468;-81
2023/06/27 11:30:39;;;;;;;3.60;1.90;;;;;;;27.47;29.09;99808.38;4979343;28;20724;-81
2023/06/27 11:33:06;;;;;;;2.27;1.93;;;;;;;27.51;29.56;99804.25;4981141;28;20465;-80
2023/06/27 11:35:31;;;;;;;2.10;1.90;;;;;;;27.57;29.22;99803.44;4979876;28;20516;-81
2023/06/27 11:37:57;;;;;;;3.27;1.80;;;;;;;27.70;29.07;99807.19;4980449;28;20467;-81